createdAt,value
2022-12-07T00:10:26.657Z,7.00
2022-12-07T00:12:55.430Z,8.13
2022-12-07T00:15:24.348Z,8.53
2022-12-07T00:17:54.332Z,8.10
2022-12-07T00:20:24.922Z,7.80
2022-12-07T00:22:53.617Z,7.00
2022-12-07T00:25:22.215Z,7.13
2022-12-07T00:27:53.747Z,7.33
2022-12-07T00:30:22.360Z,8.00
2022-12-07T00:32:51.506Z,8.53
2022-12-07T00:35:20.193Z,8.30
2022-12-07T00:37:48.698Z,7.87
2022-12-07T00:40:18.011Z,7.33
2022-12-07T00:42:46.669Z,7.10
2022-12-07T00:45:17.696Z,7.87
2022-12-07T00:47:46.815Z,8.63
2022-12-07T00:50:19.090Z,8.27
2022-12-07T00:58:15.799Z,7.83
2022-12-07T01:00:47.157Z,7.90
2022-12-07T01:03:17.992Z,7.50
2022-12-07T01:05:53.563Z,7.50
2022-12-07T01:08:23.960Z,8.03
2022-12-07T01:16:54.019Z,7.37
2022-12-07T01:19:23.644Z,7.67
2022-12-07T01:24:30.867Z,8.33
2022-12-07T01:27:02.809Z,9.00
2022-12-07T01:29:32.045Z,9.03
2022-12-07T01:32:00.567Z,7.30
2022-12-07T01:34:50.913Z,8.30
2022-12-07T01:37:19.575Z,7.53
2022-12-07T01:39:51.717Z,7.23
2022-12-07T01:42:21.020Z,7.47
2022-12-07T01:45:08.610Z,8.00
2022-12-07T01:47:37.089Z,7.07
2022-12-07T01:50:07.616Z,7.73
2022-12-07T01:52:36.839Z,7.93
2022-12-07T01:55:08.509Z,8.50
2022-12-07T01:57:38.257Z,7.70
2022-12-07T02:00:08.907Z,7.83
2022-12-07T02:02:39.929Z,8.33
2022-12-07T02:05:10.702Z,7.50
2022-12-07T02:07:41.236Z,7.90
2022-12-07T02:10:16.997Z,7.90
2022-12-07T02:12:46.870Z,9.43
2022-12-07T02:15:16.517Z,9.27
2022-12-07T02:17:51.109Z,8.30
2022-12-07T02:20:29.618Z,9.03
2022-12-07T02:23:08.265Z,8.43
2022-12-07T02:25:45.096Z,8.20
2022-12-07T02:28:29.980Z,8.80
2022-12-07T02:31:02.732Z,8.47
2022-12-07T02:33:36.586Z,8.87
2022-12-07T02:36:07.639Z,9.00
2022-12-07T02:38:39.290Z,7.47
2022-12-07T02:41:12.622Z,8.23
2022-12-07T02:43:42.581Z,8.20
2022-12-07T02:46:15.960Z,7.70
2022-12-07T02:48:46.168Z,7.73
2022-12-07T02:51:14.800Z,8.47
2022-12-07T02:53:45.599Z,8.87
2022-12-07T02:56:20.263Z,7.47
2022-12-07T02:58:58.943Z,7.63
2022-12-07T03:01:33.944Z,8.50
2022-12-07T03:04:11.571Z,8.03
2022-12-07T03:06:44.738Z,8.37
2022-12-07T03:09:17.678Z,8.30
2022-12-07T03:11:48.542Z,7.70
2022-12-07T03:14:19.019Z,8.37
2022-12-07T03:16:52.140Z,8.80
2022-12-07T03:19:21.707Z,8.07
2022-12-07T03:21:52.648Z,7.60
2022-12-07T03:24:24.051Z,8.50
2022-12-07T03:26:56.312Z,8.50
2022-12-07T03:29:28.451Z,8.00
2022-12-07T03:32:00.520Z,8.07
2022-12-07T03:34:31.732Z,8.53
2022-12-07T03:37:03.397Z,8.63
2022-12-07T03:39:34.148Z,9.07
2022-12-07T03:42:04.335Z,8.60
2022-12-07T03:44:33.010Z,8.03
2022-12-07T03:47:05.615Z,8.43
2022-12-07T03:49:38.597Z,8.50
2022-12-07T03:52:12.632Z,8.47
2022-12-07T03:54:45.591Z,8.00
2022-12-07T03:57:15.111Z,8.53
2022-12-07T03:59:44.934Z,8.30
2022-12-07T04:02:16.310Z,8.00
2022-12-07T04:04:46.493Z,9.33
2022-12-07T04:07:15.787Z,8.00
2022-12-07T04:09:44.788Z,9.03
2022-12-07T04:12:14.610Z,9.63
2022-12-07T04:14:43.275Z,9.07
2022-12-07T04:17:11.925Z,9.83
2022-12-07T04:19:42.526Z,9.13
2022-12-07T04:22:11.870Z,8.90
2022-12-07T04:24:41.654Z,9.60
2022-12-07T04:27:11.318Z,9.13
2022-12-07T04:29:39.888Z,8.77
2022-12-07T04:32:08.635Z,9.63
2022-12-07T04:34:37.367Z,9.60
2022-12-07T04:37:07.487Z,9.33
2022-12-07T04:39:36.491Z,10.20
2022-12-07T04:42:06.331Z,9.60
2022-12-07T04:44:34.845Z,10.67
2022-12-07T04:47:03.730Z,10.03
2022-12-07T04:49:33.079Z,9.87
2022-12-07T04:52:02.378Z,10.60
2022-12-07T04:54:35.364Z,10.33
2022-12-07T04:57:03.914Z,9.63
2022-12-07T04:59:32.454Z,10.57
2022-12-07T05:02:01.278Z,10.93
2022-12-07T05:04:29.882Z,10.97
2022-12-07T05:09:56.577Z,11.00
2022-12-07T05:12:25.318Z,10.23
2022-12-07T05:14:56.453Z,10.17
2022-12-07T05:17:25.296Z,10.40
2022-12-07T05:19:55.073Z,10.40
2022-12-07T05:25:23.362Z,9.13
2022-12-07T05:30:54.487Z,9.93
2022-12-07T05:33:27.573Z,9.83
2022-12-07T05:42:15.026Z,10.37
2022-12-07T05:44:44.282Z,10.43
2022-12-07T05:47:14.127Z,10.50
2022-12-07T05:49:55.035Z,10.53
2022-12-07T05:52:23.821Z,9.40
2022-12-07T05:55:08.811Z,9.93
2022-12-07T05:57:39.567Z,9.80
2022-12-07T06:03:05.698Z,9.47
2022-12-07T06:05:34.783Z,9.13
2022-12-07T06:08:11.962Z,9.93
2022-12-07T06:13:25.720Z,8.80
2022-12-07T06:15:54.020Z,10.80
2022-12-07T06:18:25.254Z,10.50
2022-12-07T06:20:53.610Z,9.97
2022-12-07T06:23:22.128Z,10.63
2022-12-07T06:25:51.424Z,10.30
2022-12-07T06:28:21.952Z,10.33
2022-12-07T06:31:21.454Z,10.67
2022-12-07T06:36:53.254Z,10.80
2022-12-07T06:39:22.359Z,11.13
2022-12-07T06:41:50.997Z,10.03
2022-12-07T06:44:20.472Z,9.83
2022-12-07T06:47:06.712Z,10.33
2022-12-07T06:49:42.123Z,10.50
2022-12-07T06:52:11.762Z,10.20
2022-12-07T06:54:42.116Z,10.37
2022-12-07T06:57:25.843Z,11.17
2022-12-07T06:59:55.703Z,9.43
2022-12-07T07:02:26.499Z,10.30
2022-12-07T07:04:55.583Z,11.00
2022-12-07T07:07:26.633Z,10.27
2022-12-07T07:09:58.334Z,10.40
2022-12-07T07:12:27.617Z,10.43
2022-12-07T07:14:58.403Z,10.23
2022-12-07T07:17:30.127Z,10.80
2022-12-07T07:19:59.615Z,9.80
2022-12-07T07:22:39.119Z,9.87
2022-12-07T07:28:15.909Z,9.37
2022-12-07T07:33:52.353Z,10.43
2022-12-07T07:36:26.042Z,11.00
2022-12-07T07:41:40.633Z,10.63
2022-12-07T07:44:10.771Z,9.40
2022-12-07T07:46:42.904Z,9.83
2022-12-07T07:49:34.937Z,9.93
2022-12-07T07:55:16.583Z,9.63
2022-12-07T08:00:42.350Z,8.13
2022-12-07T08:03:16.740Z,9.10
2022-12-07T08:05:59.634Z,9.90
2022-12-07T08:08:30.806Z,10.00
2022-12-07T08:13:57.129Z,8.93
2022-12-07T08:19:55.511Z,9.00
2022-12-07T08:22:25.207Z,9.13
2022-12-07T08:25:15.654Z,8.70
2022-12-07T08:27:45.259Z,8.67
2022-12-07T08:30:15.799Z,7.43
2022-12-07T08:32:45.048Z,8.67
2022-12-07T08:35:17.462Z,8.10
2022-12-07T08:37:48.165Z,8.93
2022-12-07T08:40:22.574Z,8.73
2022-12-07T08:42:55.134Z,9.27
2022-12-07T08:45:27.307Z,8.77
2022-12-07T08:48:05.198Z,8.97
2022-12-07T08:50:44.458Z,9.83
2022-12-07T08:53:26.791Z,8.97
2022-12-07T08:55:55.518Z,8.63
2022-12-07T08:58:25.066Z,9.33
2022-12-07T09:00:54.318Z,9.23
2022-12-07T09:03:22.926Z,9.50
2022-12-07T09:05:54.695Z,8.73
2022-12-07T09:08:28.711Z,8.87
2022-12-07T09:10:59.232Z,8.93
2022-12-07T09:13:29.313Z,8.70
2022-12-07T09:15:59.091Z,9.50
2022-12-07T09:18:39.307Z,8.83
2022-12-07T09:21:11.446Z,8.57
2022-12-07T09:23:40.384Z,8.40
2022-12-07T09:26:12.605Z,9.13
2022-12-07T09:28:41.832Z,8.47
2022-12-07T09:31:26.384Z,7.63
2022-12-07T09:33:58.231Z,7.97
2022-12-07T09:36:29.179Z,7.97
2022-12-07T09:38:58.336Z,8.80
2022-12-07T09:41:27.793Z,8.50
2022-12-07T09:44:01.928Z,7.57
2022-12-07T09:46:32.222Z,8.27
2022-12-07T09:49:02.994Z,8.33
2022-12-07T09:51:34.740Z,7.70
2022-12-07T09:54:04.782Z,8.10
2022-12-07T10:02:54.478Z,7.47
2022-12-07T10:11:52.835Z,8.47
2022-12-07T10:17:55.635Z,8.87
2022-12-07T10:20:29.431Z,9.10
2022-12-07T10:23:10.782Z,7.53
2022-12-07T10:28:43.712Z,8.10
2022-12-07T10:31:21.336Z,6.67
2022-12-07T10:33:54.310Z,7.30
2022-12-07T10:39:37.305Z,6.57
2022-12-07T10:42:08.287Z,7.03
2022-12-07T10:44:37.858Z,7.30
2022-12-07T10:47:28.485Z,6.77
2022-12-07T10:50:05.018Z,5.90
2022-12-07T10:52:50.575Z,5.93
2022-12-07T10:55:31.551Z,6.70
2022-12-07T10:58:12.321Z,6.83
2022-12-07T11:00:51.765Z,5.00
2022-12-07T11:03:40.901Z,5.63
2022-12-07T11:06:16.883Z,7.03
2022-12-07T11:08:55.922Z,4.57
2022-12-07T11:11:28.356Z,5.33
2022-12-07T11:14:03.560Z,5.60
2022-12-07T11:16:39.794Z,5.50
2022-12-07T11:19:22.761Z,5.30
2022-12-07T11:21:58.875Z,6.33
2022-12-07T11:24:32.007Z,6.30
2022-12-07T11:27:17.138Z,6.60
2022-12-07T11:30:11.951Z,5.73
2022-12-07T11:36:16.408Z,5.43
2022-12-07T11:38:47.506Z,5.97
2022-12-07T11:41:17.715Z,5.57
2022-12-07T11:43:55.984Z,6.03
2022-12-07T11:46:29.807Z,4.90
2022-12-07T11:49:04.060Z,5.53
2022-12-07T11:51:35.992Z,4.33
2022-12-07T11:54:07.186Z,5.33
2022-12-07T11:56:39.718Z,5.57
2022-12-07T11:59:14.009Z,5.37
2022-12-07T12:01:54.870Z,4.83
2022-12-07T12:04:47.736Z,4.77
2022-12-07T12:10:30.013Z,5.77
2022-12-07T12:16:08.170Z,5.40
2022-12-07T12:18:57.218Z,5.30
2022-12-07T12:21:31.193Z,4.50
2022-12-07T12:24:01.818Z,5.10
2022-12-07T12:26:38.881Z,5.10
2022-12-07T12:29:09.886Z,4.53
2022-12-07T12:31:40.694Z,5.00
2022-12-07T12:34:24.466Z,4.90
2022-12-07T12:36:54.783Z,5.43
2022-12-07T12:39:24.131Z,5.20
2022-12-07T12:42:11.770Z,5.43
2022-12-07T12:48:31.073Z,5.10
2022-12-07T12:51:38.366Z,4.43
2022-12-07T12:54:14.629Z,4.87
2022-12-07T12:56:46.455Z,5.40
2022-12-07T12:59:26.830Z,5.50
2022-12-07T13:01:57.920Z,5.20
2022-12-07T13:04:42.035Z,5.20
2022-12-07T13:07:55.046Z,5.93
2022-12-07T13:10:44.610Z,5.30
2022-12-07T13:13:37.172Z,4.80
2022-12-07T13:16:41.243Z,5.07
2022-12-07T13:19:59.509Z,5.73
2022-12-07T13:22:53.123Z,5.27
2022-12-07T13:25:30.816Z,4.93
2022-12-07T13:28:18.036Z,4.53
2022-12-07T13:30:49.055Z,5.80
2022-12-07T13:33:19.414Z,5.60
2022-12-07T13:35:48.365Z,4.83
2022-12-07T13:38:25.706Z,5.37
2022-12-07T13:41:16.282Z,5.80
2022-12-07T13:44:03.137Z,6.60
2022-12-07T13:46:38.901Z,6.57
2022-12-07T13:49:18.530Z,5.93
2022-12-07T13:51:47.252Z,5.97
2022-12-07T13:54:18.980Z,5.33
2022-12-07T13:56:54.009Z,6.10
2022-12-07T13:59:26.753Z,5.97
2022-12-07T14:02:14.612Z,5.20
2022-12-07T14:04:43.954Z,6.00
2022-12-07T14:07:26.610Z,5.67
2022-12-07T14:10:33.051Z,6.10
2022-12-07T14:16:01.537Z,6.23
2022-12-07T14:40:14.197Z,6.40
2022-12-07T14:43:04.029Z,6.23
2022-12-07T14:54:25.647Z,6.20
2022-12-07T14:57:08.631Z,5.70
2022-12-07T15:02:35.919Z,6.40
2022-12-07T15:05:04.969Z,7.03
2022-12-07T15:07:34.387Z,8.00
2022-12-07T15:10:03.551Z,8.30
2022-12-07T15:12:32.252Z,10.50
2022-12-07T15:15:03.265Z,12.23
2022-12-07T15:17:32.590Z,12.37
2022-12-07T15:20:06.299Z,15.67
2022-12-07T15:22:38.319Z,8.07
2022-12-07T15:25:08.034Z,7.07
2022-12-07T15:28:21.713Z,8.20
2022-12-07T15:30:50.604Z,7.07
2022-12-07T15:33:20.467Z,6.97
2022-12-07T15:35:52.718Z,6.70
2022-12-07T15:38:47.800Z,6.63
2022-12-07T15:41:12.726Z,6.80
2022-12-07T15:43:58.525Z,6.47
2022-12-07T15:46:32.142Z,6.60
2022-12-07T15:49:01.720Z,7.00
2022-12-07T15:51:31.970Z,8.10
2022-12-07T15:54:00.774Z,7.40
2022-12-07T15:56:29.617Z,7.53
2022-12-07T15:59:00.762Z,6.90
2022-12-07T16:01:32.235Z,7.57
2022-12-07T16:04:03.028Z,7.07
2022-12-07T16:06:33.631Z,6.93
2022-12-07T16:09:05.665Z,6.57
2022-12-07T16:24:59.854Z,6.73
2022-12-07T16:27:28.810Z,6.90
2022-12-07T16:29:57.468Z,7.60
2022-12-07T16:32:26.088Z,6.70
2022-12-07T16:34:55.369Z,8.37
2022-12-07T16:37:24.104Z,7.07
2022-12-07T16:39:52.762Z,7.00
2022-12-07T16:42:22.968Z,6.97
2022-12-07T16:44:51.995Z,7.93
2022-12-07T16:47:23.599Z,6.60
2022-12-07T16:49:54.524Z,8.30
2022-12-07T16:52:24.543Z,7.50
2022-12-07T16:54:55.676Z,7.53
2022-12-07T16:57:27.658Z,7.27
2022-12-07T16:59:57.233Z,8.23
2022-12-07T17:02:26.229Z,7.60
2022-12-07T17:04:54.985Z,7.40
2022-12-07T17:07:26.172Z,7.70
2022-12-07T17:09:56.322Z,8.47
2022-12-07T17:12:33.049Z,8.17
2022-12-07T17:15:16.154Z,7.77
2022-12-07T17:17:46.513Z,8.43
2022-12-07T17:20:17.926Z,9.77
2022-12-07T17:22:46.688Z,8.63
2022-12-07T17:25:15.261Z,9.27
2022-12-07T17:27:45.527Z,7.90
2022-12-07T17:30:14.606Z,9.03
2022-12-07T17:32:43.391Z,8.70
2022-12-07T17:35:12.905Z,9.13
2022-12-07T17:37:44.911Z,9.13
2022-12-07T17:40:17.678Z,9.13
2022-12-07T17:42:51.614Z,9.93
2022-12-07T17:45:20.794Z,8.83
2022-12-07T17:47:49.476Z,9.30
2022-12-07T17:50:40.769Z,9.57
2022-12-07T17:53:12.427Z,9.37
2022-12-07T17:56:19.700Z,9.47
2022-12-07T17:58:31.142Z,9.53
2022-12-07T18:00:59.755Z,9.73
2022-12-07T18:03:29.464Z,9.70
2022-12-07T18:05:59.321Z,10.63
2022-12-07T18:08:27.786Z,10.17
2022-12-07T18:11:00.130Z,11.03
2022-12-07T18:13:38.120Z,10.43
2022-12-07T18:16:09.561Z,10.47
2022-12-07T18:18:38.276Z,9.60
2022-12-07T18:21:10.443Z,10.50
2022-12-07T18:23:39.144Z,10.17
2022-12-07T18:26:08.448Z,9.20
2022-12-07T18:28:37.857Z,8.60
2022-12-07T18:31:15.639Z,11.10
2022-12-07T18:33:47.470Z,15.87
2022-12-07T18:36:16.944Z,12.83
2022-12-07T18:38:46.067Z,10.43
2022-12-07T18:41:17.654Z,11.30
2022-12-07T18:43:46.682Z,12.40
2022-12-07T18:46:16.365Z,11.33
2022-12-07T18:48:46.878Z,11.03
2022-12-07T18:51:16.534Z,10.53
2022-12-07T18:53:45.564Z,11.23
2022-12-07T18:56:15.385Z,11.00
2022-12-07T18:59:04.646Z,11.10
2022-12-07T19:01:39.471Z,12.50
2022-12-07T19:04:11.416Z,11.63
2022-12-07T19:06:41.766Z,9.43
2022-12-07T19:09:10.590Z,10.57
2022-12-07T19:11:52.264Z,10.27
2022-12-07T19:14:45.196Z,9.67
2022-12-07T19:17:16.822Z,9.87
2022-12-07T19:20:00.434Z,9.77
2022-12-07T19:22:29.001Z,9.93
2022-12-07T19:24:58.742Z,10.37
2022-12-07T19:27:30.354Z,11.33
2022-12-07T19:30:01.775Z,10.23
2022-12-07T19:32:31.493Z,11.23
2022-12-07T19:35:02.288Z,11.37
2022-12-07T19:37:31.251Z,11.27
2022-12-07T19:39:59.909Z,11.63
2022-12-07T19:42:29.143Z,10.20
2022-12-07T19:44:58.617Z,11.67
2022-12-07T19:47:28.084Z,11.73
2022-12-07T19:49:57.476Z,12.87
2022-12-07T19:52:30.971Z,11.13
2022-12-07T19:55:04.126Z,10.77
2022-12-07T19:57:33.287Z,10.63
2022-12-07T20:00:02.808Z,10.47
2022-12-07T20:02:31.598Z,12.10
2022-12-07T20:05:05.896Z,13.23
2022-12-07T20:07:43.584Z,13.80
2022-12-07T20:10:26.109Z,14.00
2022-12-07T20:13:12.619Z,13.47
2022-12-07T20:15:42.425Z,12.93
2022-12-07T20:18:11.130Z,12.07
2022-12-07T20:20:42.496Z,10.80
2022-12-07T20:23:13.897Z,10.40
2022-12-07T20:25:46.245Z,10.13
2022-12-07T20:31:15.012Z,11.33
2022-12-07T20:33:54.534Z,10.50
2022-12-07T20:36:36.987Z,11.13
2022-12-07T20:39:21.401Z,11.67
2022-12-07T20:42:11.292Z,10.93
2022-12-07T20:44:43.814Z,11.13
2022-12-07T20:47:30.982Z,11.27
2022-12-07T20:53:12.334Z,11.17
2022-12-07T20:59:03.828Z,10.93
2022-12-07T21:01:37.777Z,11.20
2022-12-07T21:04:08.818Z,12.40
2022-12-07T21:24:05.708Z,11.07
2022-12-07T21:30:25.695Z,11.27
2022-12-07T22:04:50.610Z,9.80
2022-12-07T22:07:23.382Z,8.93
2022-12-07T22:09:54.449Z,9.30
2022-12-07T22:12:27.552Z,9.43
2022-12-07T22:15:11.308Z,9.67
2022-12-07T22:17:56.025Z,9.53
2022-12-07T22:23:17.552Z,9.00
2022-12-07T22:25:52.395Z,9.87
2022-12-07T22:28:22.251Z,10.03
2022-12-07T22:30:51.223Z,9.67
2022-12-07T22:33:27.300Z,9.30
2022-12-07T22:35:56.367Z,8.60
2022-12-07T22:38:25.767Z,8.60
2022-12-07T22:41:04.009Z,9.90
2022-12-07T22:43:33.953Z,10.20
2022-12-07T22:46:03.756Z,9.30
2022-12-07T22:48:42.885Z,9.57
2022-12-07T22:54:21.263Z,8.90
2022-12-07T22:57:24.016Z,8.83
2022-12-07T22:59:55.438Z,8.60
2022-12-07T23:02:24.260Z,10.27
2022-12-07T23:04:52.960Z,9.37
2022-12-07T23:07:21.904Z,9.53
2022-12-07T23:09:50.929Z,9.70
2022-12-07T23:12:37.588Z,10.20
2022-12-07T23:15:08.376Z,10.07
2022-12-07T23:17:37.325Z,9.27
2022-12-07T23:20:06.497Z,9.33
2022-12-07T23:22:35.141Z,8.67
2022-12-07T23:25:04.137Z,10.27
2022-12-07T23:27:32.923Z,9.60
2022-12-07T23:30:01.904Z,8.80
2022-12-07T23:32:31.905Z,10.30
2022-12-07T23:35:00.679Z,10.17
2022-12-07T23:37:29.844Z,9.50
2022-12-07T23:39:59.786Z,9.77
2022-12-07T23:42:28.534Z,9.77
2022-12-07T23:44:57.001Z,10.00
2022-12-07T23:47:25.546Z,8.93
2022-12-07T23:49:55.856Z,9.67
2022-12-07T23:52:24.233Z,11.40
2022-12-07T23:54:52.962Z,11.47
2022-12-07T23:57:21.360Z,12.00
2022-12-07T23:59:51.001Z,10.80
